Addison, Vermont
Current Conditions -  °F | °C
As of 4:35 AM on Friday 24 Oct 2014 (Local Time) from K6B0 Reporting Station
Drizzle Drizzle  
Wind Chill: 37°   Ceiling: 600
Heat Index: 42°   Visibility: 3mi
Dew Point: 42°   Wind: 9mph
Humidity: 100%   Direction: 350°N
Pressure: 29.81"   Gusts: NA
Location:  44.0804°N, 73.3324°W
Report Text: K6B0 240835Z AUTO 35008KT 3SM DZ OVC006 06/06 A2981 RMK AO2 T00580058
Loading
Personal Weather Stations






























Interactive Weather Map New forecast layout! Learn more

10-Day Weather Forecast

Advertisements
Track Severe Weather on mobile